Time;durP1;ratioP1;P1;durP2;ratioP2;P2;SDS_P1;SDS_P2;PMS_P1;PMS_P2;Temp;Humidity;BMP_temperature;BMP_pressure;BME280_temperature;BME280_humidity;BME280_pressure;Samples;Min_cycle;Max_cycle;Signal;HPM_P1;HPM_P2
2022/10/27 00:00:36;;;;;;;24.42;7.03;;;22.40;71.10;;;;;;4945988;29;20042;-81
2022/10/27 00:03:03;;;;;;;17.73;4.13;;;22.40;71.40;;;;;;4941233;29;20111;-79
2022/10/27 00:05:30;;;;;;;16.08;4.70;;;22.40;71.50;;;;;;4946742;28;20023;-77
2022/10/27 00:07:56;;;;;;;13.65;4.80;;;22.40;71.60;;;;;;4947303;29;20031;-79
2022/10/27 00:10:23;;;;;;;18.48;4.45;;;22.30;71.60;;;;;;4945041;29;20039;-81
2022/10/27 00:12:49;;;;;;;19.55;6.65;;;22.30;71.80;;;;;;4940470;29;20024;-78
2022/10/27 00:15:16;;;;;;;15.00;4.63;;;22.30;71.80;;;;;;4943376;28;20090;-78
2022/10/27 00:17:42;;;;;;;22.88;5.32;;;22.30;71.90;;;;;;4946484;28;20381;-77
2022/10/27 00:20:09;;;;;;;19.77;4.88;;;22.30;71.90;;;;;;4941468;28;20035;-74
2022/10/27 00:22:37;;;;;;;21.88;5.78;;;22.30;72.00;;;;;;4946747;29;20502;-77
2022/10/27 00:25:04;;;;;;;14.88;4.80;;;22.30;72.10;;;;;;4940038;29;20110;-79
2022/10/27 00:27:31;;;;;;;13.43;4.43;;;22.20;72.10;;;;;;4941947;28;20023;-80
2022/10/27 00:29:57;;;;;;;26.08;5.63;;;22.30;72.20;;;;;;4940921;29;20050;-76
2022/10/27 00:32:24;;;;;;;21.88;5.22;;;22.20;72.20;;;;;;4940445;28;20059;-79
2022/10/27 00:34:50;;;;;;;10.35;4.43;;;22.30;72.40;;;;;;4940391;29;20023;-76
2022/10/27 00:37:17;;;;;;;19.45;4.95;;;22.20;72.50;;;;;;4941100;28;20102;-77
2022/10/27 00:39:45;;;;;;;16.65;5.07;;;22.20;72.60;;;;;;4938246;28;20413;-80
2022/10/27 00:42:15;;;;;;;21.50;5.20;;;22.20;73.20;;;;;;4939271;29;20023;-80
2022/10/27 00:44:46;;;;;;;16.70;4.28;;;22.20;72.60;;;;;;4945919;28;20041;-74
2022/10/27 00:47:31;;;;;;;18.20;4.55;;;22.20;72.80;;;;;;4941741;29;20024;-78
2022/10/27 00:50:16;;;;;;;13.48;4.93;;;22.20;72.80;;;;;;4938385;29;20540;-75
2022/10/27 00:52:44;;;;;;;16.45;5.50;;;22.20;72.80;;;;;;4941624;29;20028;-74
2022/10/27 00:55:35;;;;;;;23.83;6.00;;;22.20;73.00;;;;;;4944719;28;20027;-74
2022/10/27 00:58:08;;;;;;;19.25;5.05;;;22.20;73.00;;;;;;4930763;29;20138;-77
2022/10/27 01:00:37;;;;;;;18.05;5.43;;;22.10;73.60;;;;;;4945570;28;20073;-74
2022/10/27 01:03:06;;;;;;;18.33;4.88;;;22.10;73.10;;;;;;4943953;28;20008;-72
2022/10/27 01:05:34;;;;;;;19.58;5.65;;;22.10;73.20;;;;;;4937859;28;20528;-77
2022/10/27 01:08:04;;;;;;;12.70;4.47;;;22.10;73.40;;;;;;4942302;28;20026;-74
2022/10/27 01:10:30;;;;;;;14.77;5.82;;;22.10;73.50;;;;;;4944149;28;20039;-74
2022/10/27 01:12:58;;;;;;;17.55;5.00;;;22.10;73.50;;;;;;4937597;28;20408;-75
2022/10/27 01:15:56;;;;;;;46.58;9.25;;;22.10;73.60;;;;;;4944652;29;20525;-73
2022/10/27 01:18:34;;;;;;;23.17;6.03;;;22.10;73.80;;;;;;4940328;28;20127;-76
2022/10/27 01:21:34;;;;;;;20.50;5.80;;;22.10;74.10;;;;;;4944102;28;20060;-74
2022/10/27 01:24:31;;;;;;;16.08;5.13;;;22.10;74.20;;;;;;4942118;29;20039;-72
2022/10/27 01:27:21;;;;;;;19.25;4.50;;;22.10;74.50;;;;;;4938772;29;20031;-71
2022/10/27 01:30:04;;;;;;;18.05;5.22;;;22.10;74.10;;;;;;4939635;29;20043;-76
2022/10/27 01:32:56;;;;;;;21.65;5.35;;;22.10;74.00;;;;;;4938852;28;20157;-75
2022/10/27 01:35:43;;;;;;;15.85;4.80;;;22.10;73.90;;;;;;4937775;29;20032;-78
2022/10/27 01:38:33;;;;;;;14.23;5.30;;;22.10;73.90;;;;;;4937214;29;20011;-73
2022/10/27 01:41:07;;;;;;;12.55;3.47;;;22.10;74.10;;;;;;4939175;28;20424;-78
2022/10/27 01:43:35;;;;;;;17.40;5.00;;;22.10;74.20;;;;;;4938741;28;20054;-86
2022/10/27 01:46:05;;;;;;;13.15;3.50;;;22.00;74.00;;;;;;4940771;29;20561;-74
2022/10/27 01:48:36;;;;;;;15.10;4.43;;;22.00;74.00;;;;;;4941150;28;20043;-73
2022/10/27 01:51:02;;;;;;;14.32;4.50;;;22.10;74.00;;;;;;4937266;28;20542;-72
2022/10/27 01:53:32;;;;;;;21.73;3.60;;;22.00;74.00;;;;;;4941951;29;20027;-72
2022/10/27 01:56:10;;;;;;;14.40;5.07;;;22.00;73.90;;;;;;4943731;28;20050;-73
2022/10/27 01:58:58;;;;;;;11.93;3.35;;;22.00;74.00;;;;;;4942099;29;20066;-73
2022/10/27 02:01:37;;;;;;;11.63;3.67;;;22.00;74.00;;;;;;4942547;29;20107;-73
2022/10/27 02:04:20;;;;;;;18.38;9.38;;;22.00;73.90;;;;;;4937206;29;20023;-75
2022/10/27 02:06:55;;;;;;;34.33;14.30;;;22.00;74.00;;;;;;4937193;28;20035;-75
2022/10/27 02:09:27;;;;;;;22.70;8.53;;;22.00;74.50;;;;;;4941127;29;20020;-71
2022/10/27 02:11:55;;;;;;;30.55;6.80;;;22.00;74.90;;;;;;4938988;29;20485;-77
2022/10/27 02:14:22;;;;;;;17.67;5.18;;;22.00;74.40;;;;;;4943356;29;20055;-80
2022/10/27 02:16:53;;;;;;;17.10;4.72;;;21.90;74.40;;;;;;4944466;29;20024;-76
2022/10/27 02:19:26;;;;;;;11.27;4.55;;;21.90;74.50;;;;;;4945211;29;20036;-78
2022/10/27 02:21:57;;;;;;;16.42;3.78;;;21.90;74.30;;;;;;4943799;28;20032;-83
2022/10/27 02:24:24;;;;;;;16.17;4.13;;;21.80;74.00;;;;;;4944073;29;20046;-75
2022/10/27 02:26:58;;;;;;;13.27;3.70;;;21.80;73.80;;;;;;4938483;29;20320;-76
2022/10/27 02:29:32;;;;;;;16.73;4.65;;;21.80;73.60;;;;;;4938964;29;20028;-77
2022/10/27 02:32:06;;;;;;;13.70;4.43;;;21.80;73.70;;;;;;4945331;29;20015;-84
2022/10/27 02:34:36;;;;;;;11.95;4.50;;;21.70;73.50;;;;;;4945778;29;20578;-76
2022/10/27 02:37:04;;;;;;;12.43;3.58;;;21.70;73.40;;;;;;4949355;28;20059;-80
2022/10/27 02:39:31;;;;;;;14.35;4.65;;;21.70;73.50;;;;;;4960356;28;20032;-78
2022/10/27 02:41:59;;;;;;;13.85;4.57;;;21.70;73.50;;;;;;4943081;28;20031;-83
2022/10/27 02:44:26;;;;;;;15.80;4.82;;;21.70;73.50;;;;;;4941452;29;20486;-73
2022/10/27 02:46:52;;;;;;;23.90;7.15;;;21.70;73.50;;;;;;4955943;28;20028;-79
2022/10/27 02:49:20;;;;;;;19.23;7.57;;;21.70;73.70;;;;;;4944146;28;20426;-77
2022/10/27 02:51:46;;;;;;;22.38;10.18;;;21.70;74.30;;;;;;4940137;29;20386;-79
2022/10/27 02:54:13;;;;;;;22.40;8.80;;;21.70;74.90;;;;;;4937640;29;20030;-76
2022/10/27 02:56:40;;;;;;;11.88;4.53;;;21.70;74.60;;;;;;4960789;28;20062;-83
2022/10/27 02:59:06;;;;;;;18.88;6.30;;;21.70;74.40;;;;;;4940422;29;20019;-75
2022/10/27 03:01:33;;;;;;;12.10;5.35;;;21.60;74.10;;;;;;4947812;28;20367;-74
2022/10/27 03:04:00;;;;;;;14.88;3.70;;;21.60;74.70;;;;;;4943097;29;20019;-72
2022/10/27 03:07:06;;;;;;;9.57;4.35;;;21.60;74.00;;;;;;4946399;28;20111;-74
2022/10/27 03:09:32;;;;;;;19.95;4.45;;;21.60;73.90;;;;;;4946613;28;20039;-80
2022/10/27 03:11:59;;;;;;;17.60;4.28;;;21.60;73.80;;;;;;4968447;28;20410;-82
2022/10/27 03:15:05;;;;;;;10.48;3.78;;;21.60;73.80;;;;;;4945146;29;20078;-84
2022/10/27 03:18:12;;;;;;;10.50;3.38;;;21.60;73.90;;;;;;4940917;29;20500;-85
2022/10/27 03:21:18;;;;;;;16.90;4.15;;;21.60;74.00;;;;;;4956612;28;20051;-77
2022/10/27 03:24:24;;;;;;;14.43;4.10;;;21.60;74.10;;;;;;4939793;28;20051;-72
2022/10/27 03:27:30;;;;;;;17.55;4.22;;;21.60;74.20;;;;;;4969588;28;20417;-80
2022/10/27 03:30:36;;;;;;;11.98;4.25;;;21.60;74.20;;;;;;4939463;28;20123;-76
2022/10/27 03:33:42;;;;;;;12.60;3.13;;;21.60;74.20;;;;;;4941123;29;20043;-76
2022/10/27 03:36:48;;;;;;;17.98;4.38;;;21.60;74.40;;;;;;4946258;29;20027;-81
2022/10/27 03:39:54;;;;;;;16.70;7.22;;;21.60;74.50;;;;;;4942967;29;20024;-76
2022/10/27 03:43:00;;;;;;;50.85;14.88;;;21.50;74.60;;;;;;4943306;29;20141;-78
2022/10/27 03:46:06;;;;;;;26.67;8.05;;;21.50;74.80;;;;;;4943062;29;20035;-79
2022/10/27 03:49:13;;;;;;;23.77;6.95;;;21.60;75.00;;;;;;4939850;29;20031;-80
2022/10/27 03:52:21;;;;;;;10.88;3.63;;;21.60;75.00;;;;;;4940181;29;20198;-77
2022/10/27 03:55:28;;;;;;;18.20;4.20;;;21.50;75.00;;;;;;4939402;29;20024;-82
2022/10/27 03:58:34;;;;;;;18.60;4.60;;;21.50;75.10;;;;;;4941926;29;20420;-79
2022/10/27 04:01:42;;;;;;;12.40;4.35;;;21.50;75.20;;;;;;4939769;29;20127;-79
2022/10/27 04:04:48;;;;;;;13.85;3.80;;;21.50;75.20;;;;;;4938199;29;20050;-79
2022/10/27 04:07:14;;;;;;;20.95;4.50;;;21.50;76.10;;;;;;4944794;29;20107;-84
2022/10/27 04:09:41;;;;;;;26.20;7.20;;;21.50;76.80;;;;;;4943215;28;20409;-78
2022/10/27 04:12:07;;;;;;;20.65;6.47;;;21.50;76.70;;;;;;4938870;28;20051;-80
2022/10/27 04:14:34;;;;;;;23.10;7.72;;;21.50;77.10;;;;;;4942398;28;20024;-81
2022/10/27 04:17:00;;;;;;;10.93;5.00;;;21.50;77.30;;;;;;4937212;28;20059;-85
2022/10/27 04:19:27;;;;;;;16.13;4.32;;;21.50;77.40;;;;;;4941923;28;20146;-76
2022/10/27 04:22:33;;;;;;;15.82;3.90;;;21.50;76.90;;;;;;4937044;28;20446;-77
2022/10/27 04:25:39;;;;;;;15.35;3.95;;;21.40;76.70;;;;;;4942696;28;20027;-82
2022/10/27 04:28:08;;;;;;;13.68;3.30;;;21.40;76.40;;;;;;4940393;28;20111;-75
2022/10/27 04:30:35;;;;;;;16.02;4.60;;;21.40;76.20;;;;;;4937649;28;20051;-77
2022/10/27 04:33:03;;;;;;;18.52;4.30;;;21.40;76.10;;;;;;4939464;28;20090;-77
2022/10/27 04:35:29;;;;;;;17.15;3.70;;;21.40;76.00;;;;;;4941572;28;20498;-77
2022/10/27 04:37:56;;;;;;;17.05;5.65;;;21.40;75.90;;;;;;4940864;29;20016;-75
2022/10/27 04:40:24;;;;;;;32.65;6.75;;;21.40;75.80;;;;;;4937149;29;20422;-74
2022/10/27 04:42:50;;;;;;;20.77;4.47;;;21.40;76.10;;;;;;4941576;28;20043;-76
2022/10/27 04:45:17;;;;;;;16.75;3.78;;;21.40;76.20;;;;;;4938911;28;20050;-82
2022/10/27 04:47:44;;;;;;;9.98;3.92;;;21.40;76.30;;;;;;4940571;28;20102;-81
2022/10/27 04:50:12;;;;;;;10.57;3.38;;;21.50;76.20;;;;;;4940884;29;20035;-76
2022/10/27 04:52:38;;;;;;;18.55;5.43;;;21.40;76.10;;;;;;4936454;28;20106;-78
2022/10/27 04:55:05;;;;;;;34.33;5.68;;;21.40;76.70;;;;;;4941385;29;20532;-80
2022/10/27 04:57:32;;;;;;;16.25;3.75;;;21.40;77.00;;;;;;4937157;28;20032;-76
2022/10/27 04:59:58;;;;;;;16.05;4.15;;;21.40;77.00;;;;;;4942414;29;20071;-80
2022/10/27 05:02:25;;;;;;;17.95;5.80;;;21.40;76.80;;;;;;4937382;28;20028;-79
2022/10/27 05:04:51;;;;;;;14.77;4.18;;;21.50;77.00;;;;;;4935734;29;20495;-75
2022/10/27 05:07:18;;;;;;;20.83;3.35;;;21.50;77.30;;;;;;4939361;29;20039;-75
2022/10/27 05:09:44;;;;;;;12.13;3.28;;;21.40;77.60;;;;;;4944952;28;20035;-78
2022/10/27 05:12:10;;;;;;;14.63;3.92;;;21.40;77.80;;;;;;4938163;28;20050;-80
2022/10/27 05:14:37;;;;;;;12.95;4.40;;;21.40;77.70;;;;;;4942941;29;20023;-81
2022/10/27 05:17:03;;;;;;;14.90;4.78;;;21.40;77.60;;;;;;4940045;29;20034;-78
2022/10/27 05:19:30;;;;;;;15.13;3.60;;;21.40;77.60;;;;;;4935335;28;20033;-77
2022/10/27 05:21:56;;;;;;;10.88;3.25;;;21.40;77.50;;;;;;4942180;29;20031;-74
2022/10/27 05:24:23;;;;;;;14.73;5.18;;;21.40;77.50;;;;;;4939413;28;20035;-78
2022/10/27 05:26:49;;;;;;;13.82;4.00;;;21.40;77.70;;;;;;4939286;28;20023;-79
2022/10/27 05:29:16;;;;;;;18.05;4.15;;;21.40;77.70;;;;;;4938791;28;20031;-82
2022/10/27 05:31:42;;;;;;;8.30;2.90;;;21.50;77.70;;;;;;4938425;29;20039;-80
2022/10/27 05:34:09;;;;;;;16.73;4.97;;;21.50;77.70;;;;;;4939259;28;20421;-76
2022/10/27 05:36:35;;;;;;;10.05;3.22;;;21.50;77.60;;;;;;4940325;28;20055;-79
2022/10/27 05:39:02;;;;;;;28.73;5.10;;;21.50;77.60;;;;;;4940658;29;20478;-80
2022/10/27 05:41:28;;;;;;;15.85;3.38;;;21.50;77.60;;;;;;4941581;28;20024;-79
2022/10/27 05:43:54;;;;;;;9.52;3.17;;;21.50;77.70;;;;;;4941747;29;20031;-79
2022/10/27 05:46:21;;;;;;;19.20;5.80;;;21.50;77.70;;;;;;4935646;29;20036;-78
2022/10/27 05:48:50;;;;;;;6.28;3.28;;;21.60;77.70;;;;;;4938430;29;20027;-78
2022/10/27 05:51:17;;;;;;;9.98;2.80;;;21.60;77.60;;;;;;4941229;28;20494;-79
2022/10/27 05:53:43;;;;;;;7.60;3.13;;;21.60;77.50;;;;;;4939525;28;20031;-77
2022/10/27 05:56:09;;;;;;;15.45;3.08;;;21.60;77.30;;;;;;4941868;29;20045;-80
2022/10/27 05:58:36;;;;;;;10.80;2.65;;;21.60;77.30;;;;;;4940512;28;20138;-79
2022/10/27 06:01:02;;;;;;;15.02;3.83;;;21.70;77.30;;;;;;4940286;29;20042;-79
2022/10/27 06:03:29;;;;;;;9.00;3.38;;;21.70;77.30;;;;;;4935335;29;20421;-78
2022/10/27 06:05:56;;;;;;;14.30;3.63;;;21.70;77.00;;;;;;4941757;28;20425;-79
2022/10/27 06:08:23;;;;;;;12.13;3.75;;;21.80;76.90;;;;;;4937966;28;20015;-80
2022/10/27 06:10:49;;;;;;;14.55;4.05;;;21.80;76.80;;;;;;4937354;29;20421;-78
2022/10/27 06:13:17;;;;;;;6.80;2.90;;;21.80;76.60;;;;;;4940612;28;20090;-76
2022/10/27 06:15:44;;;;;;;13.07;2.70;;;21.90;76.30;;;;;;4937513;29;20024;-77
2022/10/27 06:18:12;;;;;;;8.98;3.00;;;21.90;76.10;;;;;;4942858;28;20035;-75
2022/10/27 06:20:39;;;;;;;23.90;5.53;;;21.90;75.80;;;;;;4935043;28;20075;-75
2022/10/27 06:23:05;;;;;;;19.60;6.70;;;21.90;75.60;;;;;;4940303;29;20056;-79
2022/10/27 06:25:36;;;;;;;19.58;4.88;;;21.90;75.80;;;;;;4938598;29;20027;-80
2022/10/27 06:28:03;;;;;;;11.15;3.40;;;22.00;76.70;;;;;;4937920;29;20052;-80
2022/10/27 06:30:29;;;;;;;12.07;3.72;;;22.00;76.80;;;;;;4937248;29;20039;-79
2022/10/27 06:32:56;;;;;;;21.63;3.22;;;22.00;76.50;;;;;;4944411;28;20023;-81
2022/10/27 06:35:22;;;;;;;20.30;4.20;;;22.10;76.20;;;;;;4940633;28;20036;-78
2022/10/27 06:37:49;;;;;;;24.23;4.85;;;22.10;75.80;;;;;;4941542;29;20039;-81
2022/10/27 06:40:18;;;;;;;27.38;5.95;;;22.10;76.00;;;;;;4944487;29;20028;-79
2022/10/27 06:42:52;;;;;;;18.35;5.43;;;22.20;76.50;;;;;;4941840;29;20026;-76
2022/10/27 06:45:19;;;;;;;9.98;3.63;;;22.20;76.40;;;;;;4939419;28;20020;-74
2022/10/27 06:47:54;;;;;;;16.75;4.18;;;22.20;76.40;;;;;;4939885;29;20027;-76
2022/10/27 06:50:20;;;;;;;19.33;3.97;;;22.30;76.30;;;;;;4944894;29;20059;-78
2022/10/27 06:52:47;;;;;;;21.05;4.35;;;22.30;76.00;;;;;;4940319;28;20040;-78
2022/10/27 06:55:13;;;;;;;11.93;3.13;;;22.30;75.90;;;;;;4936617;29;20085;-77
2022/10/27 06:57:41;;;;;;;15.68;4.63;;;22.40;75.90;;;;;;4940999;29;20024;-79
2022/10/27 07:00:11;;;;;;;13.23;3.90;;;22.40;75.80;;;;;;4943851;29;20015;-80
2022/10/27 07:02:37;;;;;;;34.83;5.95;;;22.40;75.70;;;;;;4940178;29;20028;-75
2022/10/27 07:05:05;;;;;;;31.63;7.43;;;22.50;75.50;;;;;;4941042;29;20027;-76
2022/10/27 07:07:32;;;;;;;21.38;4.45;;;22.50;75.40;;;;;;4939980;29;20046;-77
2022/10/27 07:09:58;;;;;;;20.63;3.83;;;22.50;75.10;;;;;;4944159;29;20039;-74
2022/10/27 07:12:25;;;;;;;11.82;3.50;;;22.60;74.80;;;;;;4942997;29;20066;-77
2022/10/27 07:14:51;;;;;;;15.48;4.43;;;22.60;74.20;;;;;;4943333;29;20101;-75
2022/10/27 07:17:18;;;;;;;36.95;6.88;;;22.60;73.80;;;;;;4938358;29;20032;-76
2022/10/27 07:19:44;;;;;;;10.85;3.38;;;22.60;73.70;;;;;;4945558;28;20055;-76
2022/10/27 07:22:11;;;;;;;13.18;3.58;;;22.60;73.50;;;;;;4941179;28;20023;-76
2022/10/27 07:24:37;;;;;;;17.10;4.50;;;22.70;73.10;;;;;;4940132;29;20027;-76
2022/10/27 07:27:04;;;;;;;13.20;3.28;;;22.70;72.60;;;;;;4943399;28;20078;-77
2022/10/27 07:29:30;;;;;;;19.77;3.45;;;22.80;72.70;;;;;;4942826;28;20503;-75
2022/10/27 07:31:57;;;;;;;14.30;3.30;;;22.80;72.70;;;;;;4945143;28;20032;-75
2022/10/27 07:34:23;;;;;;;11.80;2.90;;;22.80;73.10;;;;;;4944728;29;20028;-73
2022/10/27 07:36:50;;;;;;;23.58;4.60;;;22.80;72.10;;;;;;4938379;29;20497;-77
2022/10/27 07:39:16;;;;;;;8.30;2.20;;;22.90;71.60;;;;;;4936819;28;20486;-75
2022/10/27 07:41:43;;;;;;;27.88;3.75;;;22.90;71.00;;;;;;4940850;29;20489;-76
2022/10/27 07:44:09;;;;;;;8.52;2.35;;;22.90;70.40;;;;;;4939087;29;20031;-76
2022/10/27 07:46:36;;;;;;;12.80;2.80;;;23.00;70.50;;;;;;4938650;28;20020;-77
2022/10/27 07:49:02;;;;;;;10.18;2.95;;;23.00;70.60;;;;;;4942543;29;20046;-76
2022/10/27 07:51:29;;;;;;;8.52;2.67;;;23.00;70.70;;;;;;4937721;28;20035;-76
2022/10/27 07:53:55;;;;;;;16.13;3.92;;;23.10;70.90;;;;;;4941731;29;20028;-77
2022/10/27 07:56:21;;;;;;;9.05;2.08;;;23.10;70.80;;;;;;4941155;29;20054;-74
2022/10/27 07:58:48;;;;;;;14.07;3.78;;;23.20;70.80;;;;;;4956759;28;20032;-76
2022/10/27 08:01:15;;;;;;;6.25;2.03;;;23.20;70.70;;;;;;4942750;29;20059;-75
2022/10/27 08:03:41;;;;;;;9.68;4.05;;;23.20;70.50;;;;;;4938594;29;20114;-75
2022/10/27 08:06:08;;;;;;;9.68;1.80;;;23.30;70.20;;;;;;4943365;29;20054;-79
2022/10/27 08:08:34;;;;;;;9.65;3.15;;;23.30;70.10;;;;;;4942411;28;20035;-76
2022/10/27 08:11:01;;;;;;;7.05;2.40;;;23.30;70.00;;;;;;4937161;28;20036;-79
2022/10/27 08:13:27;;;;;;;7.93;2.10;;;23.40;70.80;;;;;;4939942;29;20031;-76
2022/10/27 08:15:58;;;;;;;7.40;2.55;;;23.40;70.00;;;;;;4942365;29;20039;-77
2022/10/27 08:18:24;;;;;;;10.90;2.35;;;23.50;69.90;;;;;;4941865;29;20062;-76
2022/10/27 08:20:51;;;;;;;9.13;2.58;;;23.50;69.70;;;;;;4940866;28;20086;-77
2022/10/27 08:23:20;;;;;;;11.73;3.85;;;23.50;69.20;;;;;;4943100;29;20121;-77
2022/10/27 08:25:47;;;;;;;18.60;3.45;;;23.50;68.60;;;;;;4937614;29;20402;-76
2022/10/27 08:28:14;;;;;;;7.85;2.33;;;23.60;68.60;;;;;;4942177;29;20041;-78
2022/10/27 08:30:41;;;;;;;22.45;3.05;;;23.60;68.30;;;;;;4941926;29;20063;-74
2022/10/27 08:33:08;;;;;;;7.60;2.90;;;23.60;67.90;;;;;;4940467;28;20065;-76
2022/10/27 08:35:35;;;;;;;10.82;2.22;;;23.60;67.60;;;;;;4937814;28;20028;-77
2022/10/27 08:38:05;;;;;;;20.42;2.97;;;23.70;67.60;;;;;;4938778;29;20035;-75
2022/10/27 08:40:55;;;;;;;32.92;3.83;;;23.70;67.70;;;;;;4942610;28;20537;-78
2022/10/27 08:43:44;;;;;;;25.73;3.33;;;23.80;67.70;;;;;;4934563;29;20529;-74
2022/10/27 08:46:34;;;;;;;14.98;3.08;;;23.80;67.90;;;;;;4956634;28;20081;-76
2022/10/27 08:49:04;;;;;;;11.18;2.45;;;23.90;68.10;;;;;;4940805;29;20501;-76
2022/10/27 08:51:32;;;;;;;7.38;3.03;;;23.90;68.10;;;;;;4972115;28;20489;-74
2022/10/27 08:53:58;;;;;;;5.95;3.45;;;24.00;68.00;;;;;;4939620;28;20023;-74
2022/10/27 08:56:30;;;;;;;11.50;2.97;;;24.00;67.80;;;;;;4936966;29;20029;-74
2022/10/27 08:58:56;;;;;;;13.10;2.63;;;24.10;67.70;;;;;;4936385;29;20028;-77
2022/10/27 09:01:40;;;;;;;15.40;4.05;;;24.10;67.60;;;;;;4940382;29;20027;-77
2022/10/27 09:04:25;;;;;;;13.73;4.28;;;24.10;67.40;;;;;;4945180;28;20213;-73
2022/10/27 09:06:52;;;;;;;7.53;3.25;;;24.10;67.20;;;;;;4939107;29;20031;-76
2022/10/27 09:09:56;;;;;;;12.15;4.15;;;24.20;66.80;;;;;;4940323;28;20028;-75
2022/10/27 09:12:40;;;;;;;9.05;2.88;;;24.20;67.30;;;;;;4869777;29;20041;-79
2022/10/27 09:15:37;;;;;;;14.13;3.92;;;24.20;66.50;;;;;;4933123;28;20032;-79
2022/10/27 09:18:29;;;;;;;10.68;2.70;;;24.30;66.60;;;;;;4938399;29;20043;-76
2022/10/27 09:20:57;;;;;;;15.73;3.03;;;24.30;66.50;;;;;;4941716;28;20520;-77
2022/10/27 09:23:39;;;;;;;14.70;3.92;;;24.30;66.20;;;;;;4937731;28;20078;-77
2022/10/27 09:26:07;;;;;;;9.77;2.65;;;24.40;65.90;;;;;;4938910;29;20033;-77
2022/10/27 09:28:39;;;;;;;9.98;3.53;;;24.40;65.50;;;;;;4941180;29;20024;-78
2022/10/27 09:31:10;;;;;;;12.98;2.95;;;24.40;65.30;;;;;;4937012;29;20028;-78
2022/10/27 09:33:37;;;;;;;15.50;4.10;;;24.40;65.00;;;;;;4935588;29;20020;-76
2022/10/27 09:36:13;;;;;;;11.38;3.38;;;24.40;64.80;;;;;;4935968;29;21577;-79
2022/10/27 09:38:40;;;;;;;10.18;2.92;;;24.40;64.90;;;;;;4942285;29;20027;-74
2022/10/27 09:41:07;;;;;;;12.93;4.45;;;24.50;64.90;;;;;;4940953;28;20403;-75
2022/10/27 09:43:35;;;;;;;12.15;2.53;;;24.50;64.80;;;;;;4936564;29;20030;-78
2022/10/27 09:46:26;;;;;;;11.45;3.17;;;24.60;64.70;;;;;;4941081;28;20031;-76
2022/10/27 09:49:01;;;;;;;14.68;3.88;;;24.60;64.40;;;;;;4948292;28;20046;-76
2022/10/27 09:51:40;;;;;;;13.52;2.72;;;24.60;63.90;;;;;;4942324;29;20035;-75
2022/10/27 09:54:27;;;;;;;16.23;3.08;;;24.70;63.60;;;;;;4935691;29;20043;-76
2022/10/27 09:56:53;;;;;;;10.75;2.38;;;24.70;63.00;;;;;;4940598;29;20055;-74
2022/10/27 09:59:21;;;;;;;24.85;3.92;;;24.70;62.60;;;;;;4936402;29;20031;-78
2022/10/27 10:02:01;;;;;;;15.18;3.78;;;24.70;62.70;;;;;;4940603;28;20046;-78
2022/10/27 10:04:46;;;;;;;18.98;7.35;;;24.80;62.90;;;;;;4935384;29;20425;-74
2022/10/27 10:07:29;;;;;;;11.85;2.35;;;24.80;63.30;;;;;;4938127;29;20084;-74
2022/10/27 10:10:23;;;;;;;15.90;4.13;;;24.90;63.30;;;;;;4942000;29;20089;-75
2022/10/27 10:13:16;;;;;;;10.90;2.55;;;24.90;63.20;;;;;;4935343;28;20483;-74
2022/10/27 10:15:47;;;;;;;15.70;4.07;;;24.90;63.30;;;;;;4937004;29;20392;-77
2022/10/27 10:18:28;;;;;;;10.40;2.90;;;25.00;63.60;;;;;;4941088;28;20032;-75
2022/10/27 10:21:02;;;;;;;15.90;3.50;;;25.00;63.70;;;;;;4939773;28;20051;-76
2022/10/27 10:23:37;;;;;;;27.73;4.93;;;25.10;63.70;;;;;;4942569;29;20389;-78
2022/10/27 10:26:14;;;;;;;16.60;3.58;;;25.10;63.40;;;;;;4939281;29;20122;-76
2022/10/27 10:28:42;;;;;;;15.48;3.45;;;25.10;63.10;;;;;;4935944;29;20039;-75
2022/10/27 10:31:14;;;;;;;11.90;2.95;;;25.20;62.80;;;;;;4936194;28;20035;-78
2022/10/27 10:33:45;;;;;;;12.27;3.42;;;25.20;63.00;;;;;;4941560;28;20028;-73
2022/10/27 10:36:30;;;;;;;26.13;4.75;;;25.20;63.20;;;;;;4940611;29;20024;-74
2022/10/27 10:38:57;;;;;;;;;;;25.20;63.40;;;;;;4936789;29;20047;-76
2022/10/27 10:41:26;;;;;;;10.88;3.78;;;25.20;64.00;;;;;;4937321;29;19949;-78
2022/10/27 10:44:12;;;;;;;7.68;2.20;;;25.30;63.10;;;;;;4936753;29;20024;-76
2022/10/27 10:46:54;;;;;;;10.25;2.60;;;25.30;62.80;;;;;;4940445;28;20094;-76
2022/10/27 10:49:26;;;;;;;14.00;2.88;;;25.40;62.70;;;;;;4939266;28;20476;-77
2022/10/27 10:51:56;;;;;;;11.40;2.67;;;25.40;62.40;;;;;;4938338;28;20107;-74
2022/10/27 10:54:40;;;;;;;29.23;5.55;;;25.40;62.20;;;;;;4934290;29;20545;-74
2022/10/27 10:57:26;;;;;;;17.48;4.50;;;25.50;62.20;;;;;;4941215;29;20024;-75
2022/10/27 10:59:53;;;;;;;16.42;4.05;;;25.50;62.00;;;;;;4940600;29;20020;-76
2022/10/27 11:02:30;;;;;;;13.48;2.20;;;25.50;62.00;;;;;;4936260;28;20074;-77
2022/10/27 11:05:08;;;;;;;18.30;3.20;;;25.60;62.10;;;;;;4933345;29;20032;-76
2022/10/27 11:07:35;;;;;;;15.48;3.13;;;25.60;61.90;;;;;;4939327;29;20103;-76
2022/10/27 11:10:20;;;;;;;15.15;3.55;;;25.70;62.00;;;;;;4941861;29;20035;-74
2022/10/27 11:13:00;;;;;;;;;;;25.70;62.10;;;;;;4940341;28;20070;-76
2022/10/27 11:15:34;;;;;;;19.20;2.72;;;25.70;61.80;;;;;;4936982;29;19941;-77
2022/10/27 11:18:14;;;;;;;17.40;2.75;;;25.80;61.60;;;;;;4938350;29;20390;-74
2022/10/27 11:20:43;;;;;;;12.13;2.13;;;25.80;61.30;;;;;;4937031;28;20058;-74
2022/10/27 11:23:19;;;;;;;15.75;3.88;;;25.80;61.00;;;;;;4944733;29;20102;-73
2022/10/27 11:25:46;;;;;;;13.10;3.65;;;25.80;60.80;;;;;;4940591;29;20534;-75
2022/10/27 11:28:18;;;;;;;14.95;3.42;;;25.80;61.00;;;;;;4944335;28;20532;-72
2022/10/27 11:31:00;;;;;;;17.65;3.17;;;25.80;60.80;;;;;;4938333;29;20133;-73
2022/10/27 11:33:39;;;;;;;49.00;5.28;;;25.80;60.90;;;;;;4939495;29;20040;-75
2022/10/27 11:36:14;;;;;;;13.00;2.47;;;25.80;60.80;;;;;;4940840;29;20027;-72
2022/10/27 11:39:03;;;;;;;12.05;2.38;;;25.80;61.00;;;;;;4936090;28;20036;-73
2022/10/27 11:42:00;;;;;;;14.80;3.05;;;25.90;60.90;;;;;;4937338;29;20109;-73
2022/10/27 11:44:41;;;;;;;11.40;4.28;;;25.90;60.90;;;;;;4942264;29;20142;-74
2022/10/27 11:47:25;;;;;;;13.68;2.38;;;25.90;60.70;;;;;;4938024;29;20046;-73
2022/10/27 11:50:08;;;;;;;12.77;3.42;;;25.90;60.50;;;;;;4944511;28;20402;-72
2022/10/27 11:52:54;;;;;;;16.48;3.80;;;26.00;60.60;;;;;;4940084;29;20438;-73
2022/10/27 11:55:24;;;;;;;15.02;4.22;;;26.00;61.10;;;;;;4941631;29;20032;-74
2022/10/27 11:57:59;;;;;;;8.10;2.63;;;26.00;60.10;;;;;;4937468;28;20035;-73
2022/10/27 12:00:28;;;;;;;9.73;2.55;;;26.10;60.20;;;;;;4937811;29;20020;-72
2022/10/27 12:03:25;;;;;;;10.93;3.75;;;26.10;59.90;;;;;;4943867;28;20114;-73
2022/10/27 14:23:17;;;;;;;19.40;5.85;;;25.40;56.60;;;;;;5132307;27;20418;-68
2022/10/27 14:25:45;;;;;;;10.93;4.63;;;25.50;56.50;;;;;;5127681;27;20469;-68
2022/10/27 14:28:21;;;;;;;20.35;4.82;;;25.50;56.30;;;;;;5131637;27;20027;-68
2022/10/27 14:31:09;;;;;;;13.50;3.78;;;25.60;56.20;;;;;;5130857;27;20030;-68
2022/10/27 14:33:36;;;;;;;12.60;3.72;;;25.60;56.60;;;;;;5133708;27;20020;-68
2022/10/27 14:36:25;;;;;;;12.48;3.92;;;25.60;57.10;;;;;;5130164;27;20094;-67
2022/10/27 14:39:32;;;;;;;12.18;4.53;;;25.70;56.90;;;;;;5133976;27;20023;-68
2022/10/27 14:42:02;;;;;;;11.50;4.05;;;25.70;56.50;;;;;;5126460;27;20497;-68
2022/10/27 14:44:32;;;;;;;9.48;2.80;;;25.70;56.00;;;;;;5128140;27;20015;-67
2022/10/27 14:47:01;;;;;;;9.50;2.35;;;25.70;55.20;;;;;;5129131;27;20050;-68
2022/10/27 14:49:39;;;;;;;15.10;11.07;;;25.70;55.30;;;;;;5128100;27;20027;-68
2022/10/27 14:52:14;;;;;;;8.02;3.38;;;25.70;55.70;;;;;;5130261;27;20067;-68
2022/10/27 14:54:47;;;;;;;7.90;2.30;;;25.60;55.70;;;;;;5126679;27;20485;-69
2022/10/27 14:57:34;;;;;;;12.82;3.53;;;25.60;55.60;;;;;;5127563;27;20027;-67
2022/10/27 15:00:19;;;;;;;15.30;5.88;;;25.60;55.50;;;;;;5129073;27;20028;-68
2022/10/27 15:02:45;;;;;;;26.33;6.57;;;25.60;55.70;;;;;;5125686;27;20102;-68
2022/10/27 15:05:19;;;;;;;28.60;6.82;;;25.60;56.30;;;;;;5127267;27;20028;-67
2022/10/27 15:07:49;;;;;;;16.42;5.40;;;25.50;55.50;;;;;;5132064;27;20023;-67
2022/10/27 15:10:17;;;;;;;16.45;6.20;;;25.50;55.20;;;;;;5132963;27;20023;-67
2022/10/27 15:12:48;;;;;;;26.20;14.05;;;25.50;55.10;;;;;;5129946;27;20110;-67
2022/10/27 15:15:15;;;;;;;16.10;8.13;;;25.50;55.60;;;;;;5125049;27;20027;-68
2022/10/27 15:17:42;;;;;;;13.43;6.43;;;25.50;54.90;;;;;;5129376;27;20407;-67
2022/10/27 15:20:15;;;;;;;24.45;6.80;;;25.50;54.80;;;;;;5124428;27;20020;-67
2022/10/27 15:22:43;;;;;;;11.77;3.40;;;25.50;55.20;;;;;;5114807;27;20421;-68
2022/10/27 15:25:14;;;;;;;8.98;3.13;;;25.50;55.20;;;;;;5114652;27;20369;-66
2022/10/27 15:27:42;;;;;;;9.95;2.33;;;25.40;55.10;;;;;;5113846;27;20028;-67
2022/10/27 15:30:19;;;;;;;5.70;2.08;;;25.40;55.10;;;;;;5116632;27;20019;-67